Erie, Pennsylvania
Current Conditions -  °F | °C
As of 5:51 PM on Thursday 27 Nov 2014 (Local Time) from KERI Reporting Station
Light Snow Light Snow  
Wind Chill: 23°   Ceiling: 4700
Heat Index: 33°   Visibility: 9mi
Dew Point: 24°   Wind: 15mph
Humidity: 70%   Direction: 290°WNW
Pressure: 30.12"   Gusts: 22mph
Location:  42.13°N, 80.08°W
Report Text: KERI 272251Z 29013G19KT 9SM -SN SCT023 BKN047 OVC070 01/M04 A3012 RMK AO2 SNE21B49 SLP209 P0000 T00061044 $
Loading
Personal Weather Stations






























Interactive Weather Map New forecast layout! Learn more

10-Day Weather Forecast

Advertisements
Track Severe Weather on mobile